createdAt,value
2023-05-13T00:00:40.000Z,281.87
2023-05-13T00:02:06.000Z,281.87
2023-05-13T00:04:13.000Z,281.82
2023-05-13T00:05:39.000Z,281.79
2023-05-13T00:07:45.000Z,281.79
2023-05-13T00:09:12.000Z,281.79
2023-05-13T00:11:18.000Z,281.76
2023-05-13T00:12:44.000Z,281.75
2023-05-13T00:14:50.000Z,281.75
2023-05-13T00:16:17.000Z,281.7
2023-05-13T00:18:23.000Z,281.7
2023-05-13T00:19:50.000Z,281.69
2023-05-13T00:21:56.000Z,281.69
2023-05-13T00:23:22.000Z,281.68
2023-05-13T00:25:28.000Z,281.68
2023-05-13T00:28:20.000Z,281.66
2023-05-13T00:29:46.000Z,281.65
2023-05-13T00:31:52.000Z,281.63
2023-05-13T00:33:19.000Z,281.62
2023-05-13T00:35:25.000Z,281.62
2023-05-13T00:36:52.000Z,281.61
2023-05-13T00:38:58.000Z,281.61
2023-05-13T00:40:24.000Z,281.59
2023-05-13T00:42:31.000Z,281.61
2023-05-13T00:43:57.000Z,281.59
2023-05-13T00:46:03.000Z,281.59
2023-05-13T00:47:30.000Z,281.59
2023-05-13T00:49:36.000Z,281.56
2023-05-13T00:51:02.000Z,281.55
2023-05-13T00:53:09.000Z,281.52
2023-05-13T00:54:35.000Z,281.51
2023-05-13T00:56:41.000Z,281.51
2023-05-13T00:58:08.000Z,281.49
2023-05-13T01:00:14.000Z,281.49
2023-05-13T01:01:40.000Z,281.48
2023-05-13T01:03:47.000Z,281.48
2023-05-13T01:06:38.000Z,281.47
2023-05-13T01:08:04.000Z,281.48
2023-05-13T01:10:10.000Z,281.48
2023-05-13T01:11:37.000Z,281.48
2023-05-13T01:13:43.000Z,281.49
2023-05-13T01:15:09.000Z,281.48
2023-05-13T01:17:16.000Z,281.48
2023-05-13T01:18:42.000Z,281.48
2023-05-13T01:20:48.000Z,281.48
2023-05-13T01:22:15.000Z,281.49
2023-05-13T01:24:21.000Z,281.49
2023-05-13T01:25:48.000Z,281.49
2023-05-13T01:27:54.000Z,281.51
2023-05-13T01:29:20.000Z,281.52
2023-05-13T01:31:26.000Z,281.54
2023-05-13T01:32:53.000Z,281.52
2023-05-13T01:34:59.000Z,281.51
2023-05-13T01:36:25.000Z,281.49
2023-05-13T01:38:31.000Z,281.48
2023-05-13T01:39:58.000Z,281.48
2023-05-13T01:42:04.000Z,281.45
2023-05-13T01:44:56.000Z,281.42
2023-05-13T01:46:22.000Z,281.37
2023-05-13T01:48:28.000Z,281.36
2023-05-13T01:49:55.000Z,281.32
2023-05-13T01:52:01.000Z,281.29
2023-05-13T01:53:27.000Z,281.25
2023-05-13T01:55:34.000Z,281.21
2023-05-13T01:57:00.000Z,281.19
2023-05-13T01:59:06.000Z,281.14
2023-05-13T02:00:33.000Z,281.11
2023-05-13T02:02:39.000Z,281.05
2023-05-13T02:04:05.000Z,281.01
2023-05-13T02:06:12.000Z,280.97
2023-05-13T02:07:38.000Z,280.94
2023-05-13T02:09:44.000Z,280.9
2023-05-13T02:11:11.000Z,280.89
2023-05-13T02:13:17.000Z,280.87
2023-05-13T02:14:44.000Z,280.87
2023-05-13T02:16:50.000Z,280.86
2023-05-13T02:18:17.000Z,280.84
2023-05-13T02:20:23.000Z,280.84
2023-05-13T02:23:14.000Z,280.8
2023-05-13T02:24:41.000Z,280.79
2023-05-13T02:26:47.000Z,280.78
2023-05-13T02:28:13.000Z,280.76
2023-05-13T02:30:20.000Z,280.76
2023-05-13T02:31:46.000Z,280.73
2023-05-13T02:33:53.000Z,280.73
2023-05-13T02:35:19.000Z,280.72
2023-05-13T02:37:25.000Z,280.71
2023-05-13T02:38:52.000Z,280.71
2023-05-13T02:40:58.000Z,280.69
2023-05-13T02:42:24.000Z,280.71
2023-05-13T02:44:30.000Z,280.72
2023-05-13T02:45:57.000Z,280.72
2023-05-13T02:48:03.000Z,280.72
2023-05-13T02:49:30.000Z,280.71
2023-05-13T02:51:36.000Z,280.68
2023-05-13T02:53:03.000Z,280.69
2023-05-13T02:55:09.000Z,280.66
2023-05-13T02:56:35.000Z,280.64
2023-05-13T02:58:41.000Z,280.61
2023-05-13T03:01:32.000Z,280.59
2023-05-13T03:02:59.000Z,280.57
2023-05-13T03:05:05.000Z,280.56
2023-05-13T03:06:32.000Z,280.53
2023-05-13T03:08:38.000Z,280.51
2023-05-13T03:10:04.000Z,280.5
2023-05-13T03:12:10.000Z,280.5
2023-05-13T03:13:37.000Z,280.47
2023-05-13T03:15:43.000Z,280.45
2023-05-13T03:17:11.000Z,280.45
2023-05-13T03:19:17.000Z,280.42
2023-05-13T03:20:43.000Z,280.4
2023-05-13T03:22:49.000Z,280.38
2023-05-13T03:24:16.000Z,280.37
2023-05-13T03:26:22.000Z,280.35
2023-05-13T03:27:48.000Z,280.35
2023-05-13T03:29:54.000Z,280.35
2023-05-13T03:31:21.000Z,280.34
2023-05-13T03:33:27.000Z,280.31
2023-05-13T03:34:54.000Z,280.3
2023-05-13T03:37:00.000Z,280.27
2023-05-13T03:39:51.000Z,280.25
2023-05-13T03:41:17.000Z,280.23
2023-05-13T03:43:23.000Z,280.23
2023-05-13T03:44:50.000Z,280.21
2023-05-13T03:46:56.000Z,280.21
2023-05-13T03:48:23.000Z,280.23
2023-05-13T03:50:29.000Z,280.24
2023-05-13T03:51:55.000Z,280.27
2023-05-13T03:54:01.000Z,280.27
2023-05-13T03:55:28.000Z,280.3
2023-05-13T03:57:34.000Z,280.3
2023-05-13T03:59:00.000Z,280.32
2023-05-13T04:01:07.000Z,280.34
2023-05-13T04:02:33.000Z,280.38
2023-05-13T04:04:39.000Z,280.43
2023-05-13T04:06:06.000Z,280.46
2023-05-13T04:08:12.000Z,280.47
2023-05-13T04:09:39.000Z,280.46
2023-05-13T04:11:45.000Z,280.47
2023-05-13T04:13:11.000Z,280.47
2023-05-13T04:15:17.000Z,280.49
2023-05-13T04:18:09.000Z,280.51
2023-05-13T04:19:35.000Z,280.53
2023-05-13T04:21:41.000Z,280.56
2023-05-13T04:23:08.000Z,280.59
2023-05-13T04:25:14.000Z,280.62
2023-05-13T04:26:40.000Z,280.65
2023-05-13T04:28:47.000Z,280.68
2023-05-13T04:30:13.000Z,280.73
2023-05-13T04:32:19.000Z,280.76
2023-05-13T04:33:46.000Z,280.79
2023-05-13T04:35:52.000Z,280.82
2023-05-13T04:37:18.000Z,280.84
2023-05-13T04:39:25.000Z,280.86
2023-05-13T04:40:51.000Z,280.87
2023-05-13T04:42:57.000Z,280.9
2023-05-13T04:44:24.000Z,280.93
2023-05-13T04:46:30.000Z,280.97
2023-05-13T04:47:56.000Z,281.03
2023-05-13T04:50:04.000Z,281.05
2023-05-13T04:51:31.000Z,281.1
2023-05-13T04:53:37.000Z,281.15
2023-05-13T04:56:28.000Z,281.18
2023-05-13T04:57:55.000Z,281.21
2023-05-13T05:00:01.000Z,281.25
2023-05-13T05:01:27.000Z,281.29
2023-05-13T05:03:33.000Z,281.32
2023-05-13T05:05:00.000Z,281.36
2023-05-13T05:07:06.000Z,281.4
2023-05-13T05:08:33.000Z,281.45
2023-05-13T05:10:39.000Z,281.49
2023-05-13T05:12:05.000Z,281.55
2023-05-13T05:14:12.000Z,281.59
2023-05-13T05:15:38.000Z,281.61
2023-05-13T05:17:44.000Z,281.66
2023-05-13T05:19:11.000Z,281.72
2023-05-13T05:21:17.000Z,281.76
2023-05-13T05:22:44.000Z,281.82
2023-05-13T05:24:50.000Z,281.88
2023-05-13T05:26:16.000Z,281.94
2023-05-13T05:28:22.000Z,281.99
2023-05-13T05:29:49.000Z,282.06
2023-05-13T05:31:55.000Z,282.13
2023-05-13T05:34:46.000Z,282.24
2023-05-13T05:36:13.000Z,282.34
2023-05-13T05:38:19.000Z,282.39
2023-05-13T05:39:46.000Z,282.46
2023-05-13T05:41:52.000Z,282.52
2023-05-13T05:43:18.000Z,282.59
2023-05-13T05:45:24.000Z,282.67
2023-05-13T05:46:51.000Z,282.82
2023-05-13T05:48:57.000Z,283
2023-05-13T05:50:24.000Z,283.17
2023-05-13T05:52:30.000Z,283.32
2023-05-13T05:53:56.000Z,283.44
2023-05-13T05:56:02.000Z,283.41
2023-05-13T05:57:29.000Z,283.38
2023-05-13T05:59:35.000Z,283.43
2023-05-13T06:01:01.000Z,283.55
2023-05-13T06:03:08.000Z,283.57
2023-05-13T06:04:34.000Z,283.52
2023-05-13T06:06:41.000Z,283.47
2023-05-13T06:08:07.000Z,283.43
2023-05-13T06:10:13.000Z,283.38
2023-05-13T06:13:05.000Z,283.34
2023-05-13T06:14:31.000Z,283.33
2023-05-13T06:16:37.000Z,283.33
2023-05-13T06:18:04.000Z,283.36
2023-05-13T06:20:10.000Z,283.37
2023-05-13T06:21:36.000Z,283.4
2023-05-13T06:23:43.000Z,283.41
2023-05-13T06:25:09.000Z,283.45
2023-05-13T06:27:15.000Z,283.5
2023-05-13T06:28:42.000Z,283.58
2023-05-13T06:30:48.000Z,283.66
2023-05-13T06:32:14.000Z,283.73
2023-05-13T06:34:20.000Z,283.79
2023-05-13T06:35:47.000Z,283.83
2023-05-13T06:37:53.000Z,283.9
2023-05-13T06:39:20.000Z,283.94
2023-05-13T06:41:26.000Z,283.98
2023-05-13T06:42:52.000Z,284.02
2023-05-13T06:44:58.000Z,284.05
2023-05-13T06:46:25.000Z,284.12
2023-05-13T06:48:31.000Z,284.17
2023-05-13T06:51:22.000Z,284.23
2023-05-13T06:52:49.000Z,284.26
2023-05-13T06:54:55.000Z,284.26
2023-05-13T06:56:21.000Z,284.24
2023-05-13T06:58:27.000Z,284.26
2023-05-13T06:59:54.000Z,284.26
2023-05-13T07:02:00.000Z,284.3
2023-05-13T07:03:27.000Z,284.35
2023-05-13T07:05:33.000Z,284.41
2023-05-13T07:06:59.000Z,284.45
2023-05-13T07:09:05.000Z,284.49
2023-05-13T07:10:34.000Z,284.58
2023-05-13T07:12:40.000Z,284.71
2023-05-13T07:14:07.000Z,284.88
2023-05-13T07:16:13.000Z,285.02
2023-05-13T07:17:40.000Z,285.17
2023-05-13T07:19:46.000Z,285.18
2023-05-13T07:21:12.000Z,285.25
2023-05-13T07:23:18.000Z,285.28
2023-05-13T07:24:45.000Z,285.28
2023-05-13T07:26:51.000Z,285.32
2023-05-13T07:29:42.000Z,285.45
2023-05-13T07:31:09.000Z,285.65
2023-05-13T07:33:15.000Z,285.82
2023-05-13T07:34:42.000Z,285.89
2023-05-13T07:36:48.000Z,285.97
2023-05-13T07:38:14.000Z,286.18
2023-05-13T07:40:20.000Z,286.18
2023-05-13T07:41:47.000Z,286.07
2023-05-13T07:43:53.000Z,286.16
2023-05-13T07:45:20.000Z,286.2
2023-05-13T07:47:27.000Z,286.36
2023-05-13T07:48:53.000Z,286.59
2023-05-13T07:50:59.000Z,286.8
2023-05-13T07:52:26.000Z,286.97
2023-05-13T07:54:32.000Z,287.02
2023-05-13T07:55:58.000Z,287.02
2023-05-13T07:58:04.000Z,287
2023-05-13T07:59:31.000Z,287.05
2023-05-13T08:01:37.000Z,287.16
2023-05-13T08:03:04.000Z,287.26
2023-05-13T08:05:10.000Z,287.35
2023-05-13T08:08:01.000Z,287.41
2023-05-13T08:09:27.000Z,287.5
2023-05-13T08:11:33.000Z,287.57
2023-05-13T08:13:00.000Z,287.63
2023-05-13T08:15:06.000Z,287.74
2023-05-13T08:16:33.000Z,287.78
2023-05-13T08:18:39.000Z,287.89
2023-05-13T08:20:05.000Z,287.99
2023-05-13T08:22:11.000Z,288.07
2023-05-13T08:23:38.000Z,288.16
2023-05-13T08:27:24.000Z,288.23
2023-05-13T08:29:47.000Z,288.43
2023-05-13T08:31:14.000Z,288.46
2023-05-13T08:33:20.000Z,288.5
2023-05-13T08:34:46.000Z,288.57
2023-05-13T08:36:53.000Z,288.67
2023-05-13T08:38:19.000Z,288.74
2023-05-13T08:40:25.000Z,288.83
2023-05-13T08:41:52.000Z,288.98
2023-05-13T08:43:58.000Z,289.05
2023-05-13T08:45:25.000Z,289.19
2023-05-13T08:47:31.000Z,289.23
2023-05-13T08:48:57.000Z,289.32
2023-05-13T08:51:03.000Z,289.39
2023-05-13T08:52:30.000Z,289.49
2023-05-13T08:54:36.000Z,289.43
2023-05-13T08:56:02.000Z,289.49
2023-05-13T08:58:09.000Z,289.59
2023-05-13T08:59:35.000Z,289.61
2023-05-13T09:01:41.000Z,289.65
2023-05-13T09:03:08.000Z,289.74
2023-05-13T09:05:14.000Z,289.86
2023-05-13T09:08:06.000Z,289.93
2023-05-13T09:09:32.000Z,289.98
2023-05-13T09:11:38.000Z,290.08
2023-05-13T09:13:05.000Z,290.09
2023-05-13T09:15:11.000Z,290.18
2023-05-13T09:16:37.000Z,290.33
2023-05-13T09:18:43.000Z,290.38
2023-05-13T09:20:10.000Z,290.42
2023-05-13T09:22:16.000Z,290.46
2023-05-13T09:23:43.000Z,290.49
2023-05-13T09:25:49.000Z,290.48
2023-05-13T09:27:15.000Z,290.35
2023-05-13T09:29:21.000Z,290.35
2023-05-13T09:30:48.000Z,290.46
2023-05-13T09:32:54.000Z,290.56
2023-05-13T09:34:21.000Z,290.55
2023-05-13T09:36:27.000Z,290.7
2023-05-13T09:37:54.000Z,290.75
2023-05-13T09:40:00.000Z,290.92
2023-05-13T09:41:26.000Z,291
2023-05-13T09:43:32.000Z,291.09
2023-05-13T09:46:23.000Z,291.18
2023-05-13T09:47:50.000Z,291.25
2023-05-13T09:49:56.000Z,291.35
2023-05-13T09:51:23.000Z,291.48
2023-05-13T09:53:29.000Z,291.48
2023-05-13T09:54:55.000Z,291.59
2023-05-13T09:57:01.000Z,291.57
2023-05-13T09:58:28.000Z,291.59
2023-05-13T10:00:34.000Z,291.66
2023-05-13T10:02:04.000Z,291.72
2023-05-13T10:04:10.000Z,291.79
2023-05-13T10:05:37.000Z,291.79
2023-05-13T10:07:43.000Z,291.88
2023-05-13T10:09:10.000Z,291.89
2023-05-13T10:11:16.000Z,291.79
2023-05-13T10:12:42.000Z,291.86
2023-05-13T10:14:48.000Z,291.89
2023-05-13T10:16:15.000Z,291.93
2023-05-13T10:18:21.000Z,292.12
2023-05-13T10:19:48.000Z,292.36
2023-05-13T10:21:54.000Z,292.46
2023-05-13T10:24:45.000Z,292.26
2023-05-13T10:26:11.000Z,292.14
2023-05-13T10:28:17.000Z,292.01
2023-05-13T10:29:44.000Z,291.9
2023-05-13T10:31:50.000Z,291.81
2023-05-13T10:33:17.000Z,291.75
2023-05-13T10:35:23.000Z,291.76
2023-05-13T10:36:50.000Z,291.79
2023-05-13T10:38:56.000Z,291.74
2023-05-13T10:40:22.000Z,291.71
2023-05-13T10:42:29.000Z,291.71
2023-05-13T10:43:56.000Z,291.72
2023-05-13T10:46:02.000Z,291.72
2023-05-13T10:47:28.000Z,291.75
2023-05-13T10:49:34.000Z,291.74
2023-05-13T10:51:01.000Z,291.71
2023-05-13T10:53:07.000Z,291.72
2023-05-13T10:54:34.000Z,291.71
2023-05-13T10:56:40.000Z,291.69
2023-05-13T10:58:06.000Z,291.66
2023-05-13T11:00:12.000Z,291.6
2023-05-13T11:03:04.000Z,291.5
2023-05-13T11:04:30.000Z,291.49
2023-05-13T11:06:36.000Z,291.46
2023-05-13T11:08:03.000Z,291.46
2023-05-13T11:10:09.000Z,291.53
2023-05-13T11:11:36.000Z,291.62
2023-05-13T11:13:42.000Z,291.95
2023-05-13T11:15:09.000Z,292.23
2023-05-13T11:17:15.000Z,292.33
2023-05-13T11:18:41.000Z,292.22
2023-05-13T11:20:47.000Z,292.09
2023-05-13T11:22:19.000Z,291.96
2023-05-13T11:24:25.000Z,291.88
2023-05-13T11:25:52.000Z,291.81
2023-05-13T11:27:58.000Z,291.74
2023-05-13T11:29:24.000Z,291.64
2023-05-13T11:31:31.000Z,291.6
2023-05-13T11:32:57.000Z,291.83
2023-05-13T11:35:03.000Z,291.95
2023-05-13T11:36:30.000Z,291.97
2023-05-13T11:38:36.000Z,292.11
2023-05-13T11:41:28.000Z,291.97
2023-05-13T11:42:54.000Z,291.92
2023-05-13T11:45:00.000Z,292
2023-05-13T11:46:27.000Z,292.28
2023-05-13T11:48:33.000Z,292.54
2023-05-13T11:49:59.000Z,292.79
2023-05-13T11:52:05.000Z,293
2023-05-13T11:53:32.000Z,293.13
2023-05-13T11:55:38.000Z,293.29
2023-05-13T11:57:04.000Z,293.37
2023-05-13T11:59:11.000Z,293.24
2023-05-13T12:00:37.000Z,293.15
2023-05-13T12:02:43.000Z,293.04
2023-05-13T12:04:10.000Z,292.96
2023-05-13T12:06:16.000Z,292.91
2023-05-13T12:07:43.000Z,293.07
2023-05-13T12:09:49.000Z,293.13
2023-05-13T12:11:15.000Z,292.98
2023-05-13T12:13:22.000Z,292.85
2023-05-13T12:14:48.000Z,292.93
2023-05-13T12:16:54.000Z,293.15
2023-05-13T12:19:46.000Z,293.53
2023-05-13T12:21:12.000Z,293.67
2023-05-13T12:23:18.000Z,293.87
2023-05-13T12:24:45.000Z,293.66
2023-05-13T12:26:51.000Z,293.41
2023-05-13T12:28:18.000Z,293.36
2023-05-13T12:30:24.000Z,293.23
2023-05-13T12:31:50.000Z,292.98
2023-05-13T12:33:57.000Z,292.8
2023-05-13T12:35:23.000Z,292.75
2023-05-13T12:37:29.000Z,292.93
2023-05-13T12:38:56.000Z,293.15
2023-05-13T12:41:06.000Z,293.3
2023-05-13T12:42:32.000Z,293.5
2023-05-13T12:44:38.000Z,293.71
2023-05-13T12:46:05.000Z,293.96
2023-05-13T12:48:11.000Z,293.85
2023-05-13T12:49:38.000Z,293.63
2023-05-13T12:51:44.000Z,293.48
2023-05-13T12:53:10.000Z,293.36
2023-05-13T12:55:17.000Z,293.22
2023-05-13T12:58:08.000Z,293.44
2023-05-13T12:59:34.000Z,293.23
2023-05-13T13:01:40.000Z,293.01
2023-05-13T13:03:07.000Z,292.8
2023-05-13T13:05:14.000Z,292.85
2023-05-13T13:06:40.000Z,293.16
2023-05-13T13:08:47.000Z,293.16
2023-05-13T13:10:13.000Z,293.2
2023-05-13T13:12:19.000Z,293.24
2023-05-13T13:13:46.000Z,293.11
2023-05-13T13:15:52.000Z,293.16
2023-05-13T13:17:19.000Z,293.3
2023-05-13T13:19:25.000Z,293.16
2023-05-13T13:20:52.000Z,293.23
2023-05-13T13:22:58.000Z,293.45
2023-05-13T13:24:24.000Z,293.71
2023-05-13T13:26:30.000Z,293.91
2023-05-13T13:27:57.000Z,294.1
2023-05-13T13:30:03.000Z,293.92
2023-05-13T13:31:29.000Z,293.57
2023-05-13T13:33:36.000Z,293.31
2023-05-13T13:36:27.000Z,293.59
2023-05-13T13:37:54.000Z,293.8
2023-05-13T13:40:00.000Z,293.92
2023-05-13T13:41:26.000Z,294.06
2023-05-13T13:43:32.000Z,294.17
2023-05-13T13:44:59.000Z,294.26
2023-05-13T13:47:05.000Z,294.4
2023-05-13T13:48:31.000Z,294.33
2023-05-13T13:50:37.000Z,294.47
2023-05-13T13:52:04.000Z,294.64
2023-05-13T13:54:10.000Z,294.8
2023-05-13T13:55:37.000Z,294.81
2023-05-13T13:57:43.000Z,294.84
2023-05-13T13:59:09.000Z,294.66
2023-05-13T14:01:16.000Z,294.56
2023-05-13T14:02:42.000Z,294.67
2023-05-13T14:04:49.000Z,294.74
2023-05-13T14:06:15.000Z,294.64
2023-05-13T14:08:22.000Z,294.4
2023-05-13T14:09:48.000Z,294.37
2023-05-13T14:11:54.000Z,294.6
2023-05-13T14:14:46.000Z,294.89
2023-05-13T14:16:12.000Z,295.14
2023-05-13T14:18:18.000Z,295.14
2023-05-13T14:19:45.000Z,294.88
2023-05-13T14:21:51.000Z,294.64
2023-05-13T14:23:17.000Z,294.31
2023-05-13T14:25:23.000Z,294.08
2023-05-13T14:26:50.000Z,293.84
2023-05-13T14:28:56.000Z,293.98
2023-05-13T14:30:22.000Z,294.19
2023-05-13T14:32:29.000Z,294.02
2023-05-13T14:33:56.000Z,293.89
2023-05-13T14:36:02.000Z,293.78
2023-05-13T14:37:28.000Z,293.66
2023-05-13T14:39:35.000Z,293.5
2023-05-13T14:41:02.000Z,293.34
2023-05-13T14:43:08.000Z,293.22
2023-05-13T14:44:34.000Z,293.53
2023-05-13T14:46:41.000Z,293.81
2023-05-13T14:48:07.000Z,293.96
2023-05-13T14:50:14.000Z,293.91
2023-05-13T14:53:05.000Z,293.55
2023-05-13T14:54:31.000Z,293.3
2023-05-13T14:56:37.000Z,293.15
2023-05-13T14:58:04.000Z,293.04
2023-05-13T15:00:10.000Z,292.98
2023-05-13T15:01:36.000Z,292.98
2023-05-13T15:03:43.000Z,292.96
2023-05-13T15:05:09.000Z,292.94
2023-05-13T15:07:15.000Z,292.94
2023-05-13T15:08:42.000Z,292.93
2023-05-13T15:10:48.000Z,293.38
2023-05-13T15:12:14.000Z,293.87
2023-05-13T15:14:20.000Z,294.23
2023-05-13T15:15:47.000Z,293.94
2023-05-13T15:17:53.000Z,293.55
2023-05-13T15:19:20.000Z,293.27
2023-05-13T15:21:26.000Z,293.26
2023-05-13T15:22:52.000Z,293.67
2023-05-13T15:24:59.000Z,293.83
2023-05-13T15:26:25.000Z,294.08
2023-05-13T15:28:31.000Z,294.3
2023-05-13T15:31:23.000Z,294.7
2023-05-13T15:32:49.000Z,294.84
2023-05-13T15:34:56.000Z,294.91
2023-05-13T15:36:22.000Z,294.92
2023-05-13T15:38:28.000Z,295.03
2023-05-13T15:39:55.000Z,295.18
2023-05-13T15:42:01.000Z,295.26
2023-05-13T15:43:27.000Z,295.28
2023-05-13T15:45:34.000Z,295.25
2023-05-13T15:47:00.000Z,295.28
2023-05-13T15:49:06.000Z,295.24
2023-05-13T15:52:46.000Z,294.91
2023-05-13T15:54:14.000Z,294.91
2023-05-13T16:00:48.000Z,295.02
2023-05-13T16:02:15.000Z,294.96
2023-05-13T16:04:21.000Z,295.13
2023-05-13T16:05:48.000Z,295.18
2023-05-13T16:07:54.000Z,295.22
2023-05-13T16:10:45.000Z,295.24
2023-05-13T16:12:12.000Z,295.22
2023-05-13T16:14:18.000Z,295.15
2023-05-13T16:15:46.000Z,295.24
2023-05-13T16:17:52.000Z,295.26
2023-05-13T16:19:18.000Z,295.28
2023-05-13T16:21:24.000Z,295.35
2023-05-13T16:22:51.000Z,295.38
2023-05-13T16:24:57.000Z,295.4
2023-05-13T16:26:24.000Z,295.42
2023-05-13T16:28:30.000Z,295.32
2023-05-13T16:29:56.000Z,295.31
2023-05-13T16:32:02.000Z,295.33
2023-05-13T16:33:29.000Z,295.39
2023-05-13T16:35:35.000Z,295.4
2023-05-13T16:37:02.000Z,295.28
2023-05-13T16:39:08.000Z,295.38
2023-05-13T16:40:35.000Z,295.33
2023-05-13T16:42:41.000Z,295.42
2023-05-13T16:44:07.000Z,295.43
2023-05-13T16:46:14.000Z,295.32
2023-05-13T16:49:07.000Z,295.47
2023-05-13T16:50:34.000Z,295.51
2023-05-13T16:52:40.000Z,295.53
2023-05-13T16:54:07.000Z,295.54
2023-05-13T16:56:13.000Z,295.45
2023-05-13T16:57:39.000Z,295.39
2023-05-13T16:59:45.000Z,295.49
2023-05-13T17:01:12.000Z,295.49
2023-05-13T17:03:18.000Z,295.47
2023-05-13T17:04:45.000Z,295.49
2023-05-13T17:06:51.000Z,295.56
2023-05-13T17:08:18.000Z,295.47
2023-05-13T17:10:24.000Z,295.42
2023-05-13T17:11:51.000Z,295.45
2023-05-13T17:13:57.000Z,295.39
2023-05-13T17:15:23.000Z,295.5
2023-05-13T17:17:30.000Z,295.46
2023-05-13T17:18:56.000Z,295.4
2023-05-13T17:21:05.000Z,295.36
2023-05-13T17:22:31.000Z,295.18
2023-05-13T17:24:38.000Z,294.84
2023-05-13T17:27:29.000Z,294.48
2023-05-13T17:28:55.000Z,294.24
2023-05-13T17:31:02.000Z,294.02
2023-05-13T17:32:28.000Z,293.91
2023-05-13T17:34:34.000Z,293.78
2023-05-13T17:36:01.000Z,293.62
2023-05-13T17:38:07.000Z,293.5
2023-05-13T17:39:33.000Z,293.36
2023-05-13T17:41:40.000Z,293.26
2023-05-13T17:43:06.000Z,293.13
2023-05-13T17:45:12.000Z,293
2023-05-13T17:46:39.000Z,292.82
2023-05-13T17:48:45.000Z,292.65
2023-05-13T17:50:12.000Z,292.6
2023-05-13T17:52:18.000Z,292.62
2023-05-13T17:53:44.000Z,292.51
2023-05-13T17:55:51.000Z,292.47
2023-05-13T17:57:17.000Z,292.4
2023-05-13T17:59:24.000Z,292.37
2023-05-13T18:00:50.000Z,292.26
2023-05-13T18:02:56.000Z,292.25
2023-05-13T18:05:48.000Z,292.19
2023-05-13T18:07:14.000Z,292.12
2023-05-13T18:09:20.000Z,292.05
2023-05-13T18:10:47.000Z,291.88
2023-05-13T18:12:53.000Z,291.75
2023-05-13T18:14:19.000Z,291.69
2023-05-13T18:16:26.000Z,291.66
2023-05-13T18:17:52.000Z,291.64
2023-05-13T18:19:58.000Z,291.63
2023-05-13T18:21:25.000Z,291.52
2023-05-13T18:23:31.000Z,291.46
2023-05-13T18:24:57.000Z,291.39
2023-05-13T18:27:04.000Z,291.35
2023-05-13T18:28:30.000Z,291.24
2023-05-13T18:30:36.000Z,291.13
2023-05-13T18:32:03.000Z,291.09
2023-05-13T18:34:09.000Z,290.99
2023-05-13T18:35:35.000Z,290.88
2023-05-13T18:37:42.000Z,290.85
2023-05-13T18:39:08.000Z,290.79
2023-05-13T18:41:14.000Z,290.71
2023-05-13T18:44:06.000Z,290.58
2023-05-13T18:45:32.000Z,290.53
2023-05-13T18:47:38.000Z,290.48
2023-05-13T18:49:05.000Z,290.45
2023-05-13T18:51:11.000Z,290.38
2023-05-13T18:52:37.000Z,290.34
2023-05-13T18:54:44.000Z,290.28
2023-05-13T18:56:10.000Z,290.2
2023-05-13T18:58:16.000Z,290.18
2023-05-13T18:59:43.000Z,290.13
2023-05-13T19:01:49.000Z,290.06
2023-05-13T19:03:16.000Z,290.02
2023-05-13T19:05:22.000Z,290
2023-05-13T19:06:49.000Z,289.97
2023-05-13T19:08:55.000Z,289.9
2023-05-13T19:10:21.000Z,289.87
2023-05-13T19:12:28.000Z,289.83
2023-05-13T19:13:54.000Z,289.79
2023-05-13T19:16:00.000Z,289.74
2023-05-13T19:17:27.000Z,289.7
2023-05-13T19:19:33.000Z,289.68
2023-05-13T19:22:24.000Z,289.61
2023-05-13T19:23:51.000Z,289.56
2023-05-13T19:25:57.000Z,289.51
2023-05-13T19:27:24.000Z,289.49
2023-05-13T19:29:30.000Z,289.46
2023-05-13T19:30:56.000Z,289.42
2023-05-13T19:33:03.000Z,289.35
2023-05-13T19:34:29.000Z,289.29
2023-05-13T19:36:35.000Z,289.25
2023-05-13T19:38:02.000Z,289.22
2023-05-13T19:40:08.000Z,289.07
2023-05-13T19:41:34.000Z,288.98
2023-05-13T19:43:41.000Z,288.9
2023-05-13T19:45:07.000Z,288.78
2023-05-13T19:47:13.000Z,288.71
2023-05-13T19:48:40.000Z,288.63
2023-05-13T19:50:46.000Z,288.58
2023-05-13T19:52:12.000Z,288.49
2023-05-13T19:54:18.000Z,288.49
2023-05-13T19:55:45.000Z,288.42
2023-05-13T19:57:51.000Z,288.4
2023-05-13T20:00:42.000Z,288.33
2023-05-13T20:02:09.000Z,288.25
2023-05-13T20:04:15.000Z,288.21
2023-05-13T20:05:42.000Z,288.14
2023-05-13T20:07:48.000Z,288.05
2023-05-13T20:09:14.000Z,287.95
2023-05-13T20:11:20.000Z,287.84
2023-05-13T20:12:47.000Z,287.75
2023-05-13T20:14:53.000Z,287.66
2023-05-13T20:16:19.000Z,287.63
2023-05-13T20:18:26.000Z,287.59
2023-05-13T20:19:52.000Z,287.53
2023-05-13T20:21:58.000Z,287.48
2023-05-13T20:23:25.000Z,287.35
2023-05-13T20:25:31.000Z,287.26
2023-05-13T20:26:57.000Z,287.07
2023-05-13T20:29:04.000Z,286.97
2023-05-13T20:30:30.000Z,286.88
2023-05-13T20:32:36.000Z,286.82
2023-05-13T20:34:03.000Z,286.77
2023-05-13T20:36:09.000Z,286.68
2023-05-13T20:39:01.000Z,286.54
2023-05-13T20:40:27.000Z,286.51
2023-05-13T20:42:33.000Z,286.5
2023-05-13T20:44:00.000Z,286.44
2023-05-13T20:46:06.000Z,286.36
2023-05-13T20:47:33.000Z,286.26
2023-05-13T20:49:39.000Z,286.16
2023-05-13T20:51:06.000Z,286.05
2023-05-13T20:53:12.000Z,285.95
2023-05-13T20:54:38.000Z,285.84
2023-05-13T20:56:44.000Z,285.78
2023-05-13T20:58:11.000Z,285.67
2023-05-13T21:00:17.000Z,285.61
2023-05-13T21:01:43.000Z,285.47
2023-05-13T21:03:50.000Z,285.45
2023-05-13T21:05:16.000Z,285.42
2023-05-13T21:07:22.000Z,285.33
2023-05-13T21:08:49.000Z,285.27
2023-05-13T21:10:55.000Z,285.2
2023-05-13T21:12:21.000Z,285.11
2023-05-13T21:14:28.000Z,285.02
2023-05-13T21:17:19.000Z,284.87
2023-05-13T21:18:45.000Z,284.77
2023-05-13T21:20:51.000Z,284.68
2023-05-13T21:22:18.000Z,284.66
2023-05-13T21:24:24.000Z,284.63
2023-05-13T21:25:51.000Z,284.58
2023-05-13T21:27:57.000Z,284.51
2023-05-13T21:29:23.000Z,284.44
2023-05-13T21:31:30.000Z,284.33
2023-05-13T21:32:56.000Z,284.24
2023-05-13T21:35:02.000Z,284.2
2023-05-13T21:36:29.000Z,284.08
2023-05-13T21:38:35.000Z,284.08
2023-05-13T21:40:02.000Z,284.05
2023-05-13T21:42:08.000Z,283.97
2023-05-13T21:43:34.000Z,283.91
2023-05-13T21:45:40.000Z,283.87
2023-05-13T21:47:07.000Z,283.77
2023-05-13T21:49:13.000Z,283.7
2023-05-13T21:50:40.000Z,283.66
2023-05-13T21:52:46.000Z,283.61
2023-05-13T21:55:37.000Z,283.54
2023-05-13T21:57:04.000Z,283.5
2023-05-13T21:59:10.000Z,283.44
2023-05-13T22:00:36.000Z,283.37
2023-05-13T22:02:42.000Z,283.34
2023-05-13T22:04:09.000Z,283.32
2023-05-13T22:06:15.000Z,283.27
2023-05-13T22:07:42.000Z,283.18
2023-05-13T22:09:48.000Z,283.11
2023-05-13T22:11:16.000Z,283.05
2023-05-13T22:13:22.000Z,283.09
2023-05-13T22:14:49.000Z,283.06
2023-05-13T22:16:55.000Z,283.05
2023-05-13T22:18:36.000Z,283.03
2023-05-13T22:20:42.000Z,283
2023-05-13T22:22:09.000Z,282.98
2023-05-13T22:24:15.000Z,282.91
2023-05-13T22:25:41.000Z,282.85
2023-05-13T22:27:48.000Z,282.81
2023-05-13T22:29:14.000Z,282.74
2023-05-13T22:31:20.000Z,282.68
2023-05-13T22:34:12.000Z,282.59
2023-05-13T22:35:38.000Z,282.53
2023-05-13T22:37:44.000Z,282.46
2023-05-13T22:39:11.000Z,282.41
2023-05-13T22:41:17.000Z,282.35
2023-05-13T22:42:43.000Z,282.28
2023-05-13T22:44:49.000Z,282.24
2023-05-13T22:46:16.000Z,282.21
2023-05-13T22:48:22.000Z,282.24
2023-05-13T22:49:49.000Z,282.23
2023-05-13T22:51:55.000Z,282.21
2023-05-13T22:53:21.000Z,282.16
2023-05-13T22:55:27.000Z,282.14
2023-05-13T22:56:54.000Z,282.16
2023-05-13T22:59:00.000Z,282.13